Terminal Aerodrome Forecast
Issued by NWS

Home | Current Version | Previous Version | Text Only | Print | Product List | Glossary On
Versions: 1 2 3 4 5 6 7 8 9 10 11 12
000
FTUS45 KVEF 102340
TAFEED
TAF
KEED 102340Z 1100/1124 20006KT P6SM FEW080 BKN200
     FM110200 24006KT P6SM FEW080 SCT140 BKN200
     FM111500 VRB05KT P6SM BKN200=

USA.gov is the U.S. government's official web portal to all federal, state and local government web resources and services.